sensor_id;sensor_type;location;lat;lon;timestamp;pressure;altitude;pressure_sealevel;temperature;humidity
47809;BME280;33573;38.790;-77.084;2022-07-10T00:02:27;101403.81;;;27.34;40.23
47809;BME280;33573;38.790;-77.084;2022-07-10T00:04:55;101402.01;;;27.20;40.34
47809;BME280;33573;38.790;-77.084;2022-07-10T00:07:23;101398.73;;;27.03;40.25
47809;BME280;33573;38.790;-77.084;2022-07-10T00:09:51;101397.96;;;27.18;40.39
47809;BME280;33573;38.790;-77.084;2022-07-10T00:12:19;101390.40;;;27.19;40.45
47809;BME280;33573;38.790;-77.084;2022-07-10T00:14:47;101396.07;;;27.15;40.25
47809;BME280;33573;38.790;-77.084;2022-07-10T00:17:15;101403.51;;;27.18;40.35
47809;BME280;33573;38.790;-77.084;2022-07-10T00:19:43;101406.15;;;27.25;40.37
47809;BME280;33573;38.790;-77.084;2022-07-10T00:22:11;101402.77;;;27.18;40.25
47809;BME280;33573;38.790;-77.084;2022-07-10T00:24:39;101415.36;;;26.79;40.37
47809;BME280;33573;38.790;-77.084;2022-07-10T00:27:07;101421.33;;;27.31;40.13
47809;BME280;33573;38.790;-77.084;2022-07-10T00:29:35;101426.96;;;27.27;40.21
47809;BME280;33573;38.790;-77.084;2022-07-10T00:32:04;101428.44;;;27.26;40.21
47809;BME280;33573;38.790;-77.084;2022-07-10T00:34:31;101424.77;;;27.18;40.30
47809;BME280;33573;38.790;-77.084;2022-07-10T00:36:59;101424.24;;;26.87;40.43
47809;BME280;33573;38.790;-77.084;2022-07-10T00:39:27;101421.62;;;27.19;40.41
47809;BME280;33573;38.790;-77.084;2022-07-10T00:41:59;101411.41;;;27.16;40.50
47809;BME280;33573;38.790;-77.084;2022-07-10T00:44:33;101409.85;;;26.91;40.54
47809;BME280;33573;38.790;-77.084;2022-07-10T00:47:01;101412.39;;;27.07;40.44
47809;BME280;33573;38.790;-77.084;2022-07-10T00:49:29;101419.15;;;26.95;40.72
47809;BME280;33573;38.790;-77.084;2022-07-10T00:51:59;101417.44;;;27.20;40.37
47809;BME280;33573;38.790;-77.084;2022-07-10T00:54:27;101412.84;;;26.97;40.31
47809;BME280;33573;38.790;-77.084;2022-07-10T00:56:55;101423.29;;;27.09;40.36
47809;BME280;33573;38.790;-77.084;2022-07-10T00:59:23;101432.41;;;27.19;40.27
47809;BME280;33573;38.790;-77.084;2022-07-10T01:01:51;101437.52;;;27.12;40.45
47809;BME280;33573;38.790;-77.084;2022-07-10T01:04:19;101438.80;;;26.90;40.41
47809;BME280;33573;38.790;-77.084;2022-07-10T01:06:47;101431.41;;;26.99;40.37
47809;BME280;33573;38.790;-77.084;2022-07-10T01:09:15;101429.96;;;27.29;40.19
47809;BME280;33573;38.790;-77.084;2022-07-10T01:11:44;101424.53;;;27.05;40.30
47809;BME280;33573;38.790;-77.084;2022-07-10T01:14:12;101417.38;;;27.01;40.28
47809;BME280;33573;38.790;-77.084;2022-07-10T01:16:42;101413.78;;;26.79;40.27
47809;BME280;33573;38.790;-77.084;2022-07-10T01:19:10;101407.98;;;27.12;40.13
47809;BME280;33573;38.790;-77.084;2022-07-10T01:21:38;101399.72;;;27.00;40.24
47809;BME280;33573;38.790;-77.084;2022-07-10T01:24:08;101397.27;;;27.25;40.19
47809;BME280;33573;38.790;-77.084;2022-07-10T01:26:36;101401.87;;;27.35;40.16
47809;BME280;33573;38.790;-77.084;2022-07-10T01:29:06;101411.21;;;27.05;40.52
47809;BME280;33573;38.790;-77.084;2022-07-10T01:31:34;101422.38;;;26.64;43.64
47809;BME280;33573;38.790;-77.084;2022-07-10T01:34:06;101431.34;;;26.68;44.09
47809;BME280;33573;38.790;-77.084;2022-07-10T01:36:34;101436.93;;;26.89;43.31
47809;BME280;33573;38.790;-77.084;2022-07-10T01:39:02;101438.84;;;27.13;42.81
47809;BME280;33573;38.790;-77.084;2022-07-10T01:41:30;101434.75;;;27.05;42.42
47809;BME280;33573;38.790;-77.084;2022-07-10T01:43:58;101436.25;;;27.07;42.30
47809;BME280;33573;38.790;-77.084;2022-07-10T01:46:26;101438.45;;;26.85;42.32
47809;BME280;33573;38.790;-77.084;2022-07-10T01:48:54;101441.42;;;27.18;42.12
47809;BME280;33573;38.790;-77.084;2022-07-10T01:51:22;101443.22;;;26.96;41.96
47809;BME280;33573;38.790;-77.084;2022-07-10T01:53:50;101443.59;;;27.26;41.83
47809;BME280;33573;38.790;-77.084;2022-07-10T01:56:18;101437.84;;;27.31;41.73
47809;BME280;33573;38.790;-77.084;2022-07-10T01:58:46;101437.63;;;27.06;41.64
47809;BME280;33573;38.790;-77.084;2022-07-10T02:01:14;101440.55;;;27.11;41.53
47809;BME280;33573;38.790;-77.084;2022-07-10T02:03:42;101451.00;;;26.91;41.47
47809;BME280;33573;38.790;-77.084;2022-07-10T02:06:10;101455.81;;;27.49;41.28
47809;BME280;33573;38.790;-77.084;2022-07-10T02:08:38;101457.09;;;27.15;41.23
47809;BME280;33573;38.790;-77.084;2022-07-10T02:11:06;101457.58;;;27.34;41.23
47809;BME280;33573;38.790;-77.084;2022-07-10T02:13:34;101465.94;;;27.04;41.23
47809;BME280;33573;38.790;-77.084;2022-07-10T02:16:02;101478.36;;;27.26;41.19
47809;BME280;33573;38.790;-77.084;2022-07-10T02:18:30;101481.98;;;27.14;41.26
47809;BME280;33573;38.790;-77.084;2022-07-10T02:20:57;101483.39;;;27.16;41.26
47809;BME280;33573;38.790;-77.084;2022-07-10T02:23:25;101487.99;;;27.36;41.12
47809;BME280;33573;38.790;-77.084;2022-07-10T02:25:53;101492.82;;;27.17;41.01
47809;BME280;33573;38.790;-77.084;2022-07-10T02:28:21;101499.54;;;27.31;41.04
47809;BME280;33573;38.790;-77.084;2022-07-10T02:30:49;101501.17;;;27.30;41.01
47809;BME280;33573;38.790;-77.084;2022-07-10T02:33:17;101505.96;;;26.94;41.07
47809;BME280;33573;38.790;-77.084;2022-07-10T02:35:45;101508.70;;;27.33;40.98
47809;BME280;33573;38.790;-77.084;2022-07-10T02:38:13;101511.62;;;27.40;40.84
47809;BME280;33573;38.790;-77.084;2022-07-10T02:40:42;101512.23;;;27.26;40.88
47809;BME280;33573;38.790;-77.084;2022-07-10T02:43:09;101514.15;;;27.15;40.83
47809;BME280;33573;38.790;-77.084;2022-07-10T02:45:37;101523.74;;;26.84;40.83
47809;BME280;33573;38.790;-77.084;2022-07-10T02:48:06;101525.11;;;27.22;40.89
47809;BME280;33573;38.790;-77.084;2022-07-10T02:50:33;101528.22;;;26.92;40.91
47809;BME280;33573;38.790;-77.084;2022-07-10T02:53:02;101524.95;;;27.06;41.02
47809;BME280;33573;38.790;-77.084;2022-07-10T02:55:30;101523.29;;;27.04;40.92
47809;BME280;33573;38.790;-77.084;2022-07-10T02:57:58;101518.76;;;27.22;40.90
47809;BME280;33573;38.790;-77.084;2022-07-10T03:00:26;101515.13;;;27.30;40.80
47809;BME280;33573;38.790;-77.084;2022-07-10T03:02:54;101515.37;;;27.40;40.69
47809;BME280;33573;38.790;-77.084;2022-07-10T03:05:22;101513.74;;;27.13;40.65
47809;BME280;33573;38.790;-77.084;2022-07-10T03:07:50;101510.81;;;27.38;40.66
47809;BME280;33573;38.790;-77.084;2022-07-10T03:10:18;101510.77;;;27.42;40.57
47809;BME280;33573;38.790;-77.084;2022-07-10T03:12:46;101514.10;;;27.36;40.57
47809;BME280;33573;38.790;-77.084;2022-07-10T03:15:14;101522.92;;;27.11;40.60
47809;BME280;33573;38.790;-77.084;2022-07-10T03:17:42;101525.50;;;27.29;40.46
47809;BME280;33573;38.790;-77.084;2022-07-10T03:20:10;101525.46;;;27.52;40.25
47809;BME280;33573;38.790;-77.084;2022-07-10T03:22:38;101523.95;;;27.45;39.97
47809;BME280;33573;38.790;-77.084;2022-07-10T03:25:06;101526.62;;;27.24;39.56
47809;BME280;33573;38.790;-77.084;2022-07-10T03:27:34;101526.10;;;27.04;39.34
47809;BME280;33573;38.790;-77.084;2022-07-10T03:30:03;101529.18;;;26.92;39.25
47809;BME280;33573;38.790;-77.084;2022-07-10T03:32:31;101526.69;;;26.86;39.24
47809;BME280;33573;38.790;-77.084;2022-07-10T03:34:59;101519.80;;;27.11;39.11
47809;BME280;33573;38.790;-77.084;2022-07-10T03:37:27;101512.66;;;27.09;39.15
47809;BME280;33573;38.790;-77.084;2022-07-10T03:39:55;101507.74;;;27.18;39.07
47809;BME280;33573;38.790;-77.084;2022-07-10T03:42:23;101509.09;;;26.86;39.17
47809;BME280;33573;38.790;-77.084;2022-07-10T03:44:51;101508.00;;;26.77;39.09
47809;BME280;33573;38.790;-77.084;2022-07-10T03:47:19;101510.42;;;27.18;39.08
47809;BME280;33573;38.790;-77.084;2022-07-10T03:49:47;101513.25;;;27.14;38.94
47809;BME280;33573;38.790;-77.084;2022-07-10T03:52:15;101511.73;;;27.02;38.73
47809;BME280;33573;38.790;-77.084;2022-07-10T03:54:43;101503.59;;;26.89;38.66
47809;BME280;33573;38.790;-77.084;2022-07-10T03:57:11;101497.27;;;26.81;38.55
47809;BME280;33573;38.790;-77.084;2022-07-10T03:59:39;101489.35;;;26.84;38.44
47809;BME280;33573;38.790;-77.084;2022-07-10T04:02:07;101486.77;;;26.90;38.35
47809;BME280;33573;38.790;-77.084;2022-07-10T04:04:35;101484.35;;;26.89;38.34
47809;BME280;33573;38.790;-77.084;2022-07-10T04:07:04;101478.19;;;26.91;38.42
47809;BME280;33573;38.790;-77.084;2022-07-10T04:09:31;101468.54;;;26.98;38.38
47809;BME280;33573;38.790;-77.084;2022-07-10T04:11:59;101468.86;;;26.90;38.42
47809;BME280;33573;38.790;-77.084;2022-07-10T04:14:27;101464.47;;;26.72;38.42
47809;BME280;33573;38.790;-77.084;2022-07-10T04:16:55;101459.21;;;26.95;38.46
47809;BME280;33573;38.790;-77.084;2022-07-10T04:19:23;101453.73;;;26.79;38.37
47809;BME280;33573;38.790;-77.084;2022-07-10T04:21:51;101450.28;;;27.01;38.37
47809;BME280;33573;38.790;-77.084;2022-07-10T04:24:19;101445.13;;;26.70;38.44
47809;BME280;33573;38.790;-77.084;2022-07-10T04:26:47;101438.13;;;26.89;38.51
47809;BME280;33573;38.790;-77.084;2022-07-10T04:29:15;101431.32;;;26.93;38.49
47809;BME280;33573;38.790;-77.084;2022-07-10T04:31:43;101438.06;;;26.99;38.47
47809;BME280;33573;38.790;-77.084;2022-07-10T04:34:11;101447.45;;;26.96;38.48
47809;BME280;33573;38.790;-77.084;2022-07-10T04:36:39;101453.71;;;26.89;38.35
47809;BME280;33573;38.790;-77.084;2022-07-10T04:39:07;101452.28;;;26.83;38.14
47809;BME280;33573;38.790;-77.084;2022-07-10T04:41:35;101436.17;;;26.66;38.06
47809;BME280;33573;38.790;-77.084;2022-07-10T04:44:04;101428.67;;;26.97;37.97
47809;BME280;33573;38.790;-77.084;2022-07-10T04:46:31;101428.23;;;26.68;37.99
47809;BME280;33573;38.790;-77.084;2022-07-10T04:48:59;101436.93;;;27.02;37.94
47809;BME280;33573;38.790;-77.084;2022-07-10T04:51:27;101441.02;;;26.69;37.99
47809;BME280;33573;38.790;-77.084;2022-07-10T04:53:55;101435.23;;;26.78;37.96
47809;BME280;33573;38.790;-77.084;2022-07-10T04:56:23;101426.69;;;26.84;37.94
47809;BME280;33573;38.790;-77.084;2022-07-10T04:58:51;101421.17;;;26.83;37.94
47809;BME280;33573;38.790;-77.084;2022-07-10T05:01:19;101422.33;;;26.86;37.90
47809;BME280;33573;38.790;-77.084;2022-07-10T05:03:47;101420.48;;;26.81;37.95
47809;BME280;33573;38.790;-77.084;2022-07-10T05:06:15;101416.01;;;26.70;38.07
47809;BME280;33573;38.790;-77.084;2022-07-10T05:08:43;101411.24;;;27.04;38.06
47809;BME280;33573;38.790;-77.084;2022-07-10T05:11:11;101413.63;;;26.99;38.09
47809;BME280;33573;38.790;-77.084;2022-07-10T05:13:39;101425.12;;;27.02;38.09
47809;BME280;33573;38.790;-77.084;2022-07-10T05:16:07;101431.83;;;26.75;38.18
47809;BME280;33573;38.790;-77.084;2022-07-10T05:18:35;101426.78;;;26.65;38.22
47809;BME280;33573;38.790;-77.084;2022-07-10T05:21:03;101425.43;;;26.70;38.23
47809;BME280;33573;38.790;-77.084;2022-07-10T05:23:32;101428.01;;;26.63;38.33
47809;BME280;33573;38.790;-77.084;2022-07-10T05:25:59;101422.92;;;26.76;38.30
47809;BME280;33573;38.790;-77.084;2022-07-10T05:28:27;101419.80;;;26.86;38.18
47809;BME280;33573;38.790;-77.084;2022-07-10T05:30:55;101418.75;;;26.77;38.24
47809;BME280;33573;38.790;-77.084;2022-07-10T05:33:23;101424.93;;;26.53;38.26
47809;BME280;33573;38.790;-77.084;2022-07-10T05:35:51;101430.37;;;26.89;38.21
47809;BME280;33573;38.790;-77.084;2022-07-10T05:38:19;101429.15;;;26.73;38.30
47809;BME280;33573;38.790;-77.084;2022-07-10T05:40:47;101425.74;;;26.66;38.38
47809;BME280;33573;38.790;-77.084;2022-07-10T05:43:15;101418.43;;;26.70;38.36
47809;BME280;33573;38.790;-77.084;2022-07-10T05:45:43;101417.03;;;26.65;38.40
47809;BME280;33573;38.790;-77.084;2022-07-10T05:48:11;101416.83;;;26.72;38.38
47809;BME280;33573;38.790;-77.084;2022-07-10T05:50:39;101411.80;;;26.83;38.35
47809;BME280;33573;38.790;-77.084;2022-07-10T05:53:07;101411.30;;;26.72;38.35
47809;BME280;33573;38.790;-77.084;2022-07-10T05:55:35;101415.29;;;26.81;38.30
47809;BME280;33573;38.790;-77.084;2022-07-10T05:58:03;101423.17;;;26.74;38.38
47809;BME280;33573;38.790;-77.084;2022-07-10T06:00:31;101427.82;;;26.75;38.39
47809;BME280;33573;38.790;-77.084;2022-07-10T06:02:59;101424.22;;;26.46;38.42
47809;BME280;33573;38.790;-77.084;2022-07-10T06:05:27;101418.96;;;26.75;38.39
47809;BME280;33573;38.790;-77.084;2022-07-10T06:07:55;101421.23;;;26.68;38.45
47809;BME280;33573;38.790;-77.084;2022-07-10T06:10:23;101423.19;;;27.02;38.57
47809;BME280;33573;38.790;-77.084;2022-07-10T06:12:51;101423.04;;;26.61;38.53
47809;BME280;33573;38.790;-77.084;2022-07-10T06:15:19;101432.27;;;26.90;38.50
47809;BME280;33573;38.790;-77.084;2022-07-10T06:17:47;101433.75;;;26.72;38.48
47809;BME280;33573;38.790;-77.084;2022-07-10T06:20:15;101434.76;;;26.80;38.58
47809;BME280;33573;38.790;-77.084;2022-07-10T06:22:43;101439.76;;;26.67;38.57
47809;BME280;33573;38.790;-77.084;2022-07-10T06:25:11;101446.30;;;26.68;38.53
47809;BME280;33573;38.790;-77.084;2022-07-10T06:27:39;101446.46;;;26.41;38.58
47809;BME280;33573;38.790;-77.084;2022-07-10T06:30:08;101440.27;;;26.66;38.56
47809;BME280;33573;38.790;-77.084;2022-07-10T06:32:37;101437.38;;;27.20;38.49
47809;BME280;33573;38.790;-77.084;2022-07-10T06:35:06;101444.28;;;27.16;38.55
47809;BME280;33573;38.790;-77.084;2022-07-10T06:37:35;101441.92;;;26.65;38.59
47809;BME280;33573;38.790;-77.084;2022-07-10T06:37:36;101441.45;;;27.13;38.61
47809;BME280;33573;38.790;-77.084;2022-07-10T06:40:05;101441.86;;;26.59;38.66
47809;BME280;33573;38.790;-77.084;2022-07-10T06:42:32;101433.61;;;26.63;38.57
47809;BME280;33573;38.790;-77.084;2022-07-10T06:45:00;101427.82;;;26.59;38.65
47809;BME280;33573;38.790;-77.084;2022-07-10T06:47:28;101423.78;;;26.56;38.65
47809;BME280;33573;38.790;-77.084;2022-07-10T06:49:57;101425.43;;;26.90;38.61
47809;BME280;33573;38.790;-77.084;2022-07-10T06:52:25;101426.66;;;26.67;38.56
47809;BME280;33573;38.790;-77.084;2022-07-10T06:54:53;101428.14;;;26.64;38.58
47809;BME280;33573;38.790;-77.084;2022-07-10T06:57:21;101427.75;;;26.57;38.67
47809;BME280;33573;38.790;-77.084;2022-07-10T06:59:49;101430.23;;;26.83;38.67
47809;BME280;33573;38.790;-77.084;2022-07-10T07:02:16;101428.90;;;26.76;38.71
47809;BME280;33573;38.790;-77.084;2022-07-10T07:04:45;101419.18;;;26.64;38.63
47809;BME280;33573;38.790;-77.084;2022-07-10T07:07:13;101419.57;;;26.52;38.68
47809;BME280;33573;38.790;-77.084;2022-07-10T07:09:41;101421.88;;;26.63;38.65
47809;BME280;33573;38.790;-77.084;2022-07-10T07:12:09;101420.42;;;26.91;38.61
47809;BME280;33573;38.790;-77.084;2022-07-10T07:14:36;101417.81;;;26.63;38.64
47809;BME280;33573;38.790;-77.084;2022-07-10T07:17:05;101415.14;;;26.41;38.62
47809;BME280;33573;38.790;-77.084;2022-07-10T07:19:33;101410.82;;;26.73;38.53
47809;BME280;33573;38.790;-77.084;2022-07-10T07:22:01;101405.15;;;26.79;38.45
47809;BME280;33573;38.790;-77.084;2022-07-10T07:24:29;101399.63;;;26.73;38.50
47809;BME280;33573;38.790;-77.084;2022-07-10T07:26:57;101391.04;;;26.62;38.58
47809;BME280;33573;38.790;-77.084;2022-07-10T07:29:25;101381.65;;;26.86;38.63
47809;BME280;33573;38.790;-77.084;2022-07-10T07:31:53;101383.19;;;26.75;38.71
47809;BME280;33573;38.790;-77.084;2022-07-10T07:34:21;101382.38;;;27.06;38.68
47809;BME280;33573;38.790;-77.084;2022-07-10T07:36:49;101387.64;;;26.56;38.68
47809;BME280;33573;38.790;-77.084;2022-07-10T07:39:17;101394.23;;;26.59;38.65
47809;BME280;33573;38.790;-77.084;2022-07-10T07:41:45;101400.54;;;26.85;38.62
47809;BME280;33573;38.790;-77.084;2022-07-10T07:44:13;101405.49;;;26.58;38.65
47809;BME280;33573;38.790;-77.084;2022-07-10T07:46:41;101403.47;;;26.82;38.67
47809;BME280;33573;38.790;-77.084;2022-07-10T07:49:09;101404.65;;;26.64;38.59
47809;BME280;33573;38.790;-77.084;2022-07-10T07:51:37;101413.01;;;26.80;38.68
47809;BME280;33573;38.790;-77.084;2022-07-10T07:54:05;101421.70;;;26.72;38.76
47809;BME280;33573;38.790;-77.084;2022-07-10T07:56:33;101424.19;;;26.49;38.79
47809;BME280;33573;38.790;-77.084;2022-07-10T07:59:01;101417.94;;;26.70;38.82
47809;BME280;33573;38.790;-77.084;2022-07-10T08:01:29;101404.66;;;26.71;38.82
47809;BME280;33573;38.790;-77.084;2022-07-10T08:03:57;101391.19;;;26.62;38.89
47809;BME280;33573;38.790;-77.084;2022-07-10T08:06:25;101390.77;;;26.48;38.79
47809;BME280;33573;38.790;-77.084;2022-07-10T08:08:53;101402.24;;;26.42;38.82
47809;BME280;33573;38.790;-77.084;2022-07-10T08:11:21;101407.92;;;26.65;38.85
47809;BME280;33573;38.790;-77.084;2022-07-10T08:13:49;101408.99;;;26.40;38.86
47809;BME280;33573;38.790;-77.084;2022-07-10T08:16:17;101413.89;;;26.42;38.85
47809;BME280;33573;38.790;-77.084;2022-07-10T08:18:45;101411.99;;;26.66;38.87
47809;BME280;33573;38.790;-77.084;2022-07-10T08:21:13;101411.50;;;26.65;38.87
47809;BME280;33573;38.790;-77.084;2022-07-10T08:23:41;101412.06;;;26.74;38.81
47809;BME280;33573;38.790;-77.084;2022-07-10T08:26:09;101411.26;;;26.78;38.77
47809;BME280;33573;38.790;-77.084;2022-07-10T08:28:37;101406.72;;;26.72;38.83
47809;BME280;33573;38.790;-77.084;2022-07-10T08:31:05;101403.71;;;26.72;38.84
47809;BME280;33573;38.790;-77.084;2022-07-10T08:33:33;101404.39;;;26.46;38.85
47809;BME280;33573;38.790;-77.084;2022-07-10T08:36:01;101399.64;;;26.17;38.92
47809;BME280;33573;38.790;-77.084;2022-07-10T08:38:29;101399.97;;;26.74;38.84
47809;BME280;33573;38.790;-77.084;2022-07-10T08:40:57;101403.54;;;26.94;38.88
47809;BME280;33573;38.790;-77.084;2022-07-10T08:43:26;101405.46;;;27.03;38.79
47809;BME280;33573;38.790;-77.084;2022-07-10T08:45:54;101409.04;;;26.46;38.82
47809;BME280;33573;38.790;-77.084;2022-07-10T08:48:23;101411.66;;;26.41;38.84
47809;BME280;33573;38.790;-77.084;2022-07-10T08:50:53;101413.09;;;26.80;38.79
47809;BME280;33573;38.790;-77.084;2022-07-10T08:53:26;101412.52;;;26.42;38.86
47809;BME280;33573;38.790;-77.084;2022-07-10T08:55:56;101414.75;;;26.34;38.93
47809;BME280;33573;38.790;-77.084;2022-07-10T08:58:24;101415.50;;;26.40;38.89
47809;BME280;33573;38.790;-77.084;2022-07-10T09:00:53;101414.97;;;26.40;38.87
47809;BME280;33573;38.790;-77.084;2022-07-10T09:03:21;101419.17;;;26.37;38.89
47809;BME280;33573;38.790;-77.084;2022-07-10T09:05:49;101422.51;;;26.36;38.91
47809;BME280;33573;38.790;-77.084;2022-07-10T09:08:25;101419.16;;;26.50;38.77
47809;BME280;33573;38.790;-77.084;2022-07-10T09:10:53;101419.77;;;26.67;38.84
47809;BME280;33573;38.790;-77.084;2022-07-10T09:13:21;101417.79;;;26.68;38.85
47809;BME280;33573;38.790;-77.084;2022-07-10T09:15:49;101416.65;;;26.35;38.87
47809;BME280;33573;38.790;-77.084;2022-07-10T09:18:21;101415.11;;;26.64;38.90
47809;BME280;33573;38.790;-77.084;2022-07-10T09:20:51;101416.72;;;26.32;38.94
47809;BME280;33573;38.790;-77.084;2022-07-10T09:23:20;101413.93;;;26.66;38.90
47809;BME280;33573;38.790;-77.084;2022-07-10T09:25:49;101408.48;;;26.71;38.84
47809;BME280;33573;38.790;-77.084;2022-07-10T09:28:19;101404.17;;;26.67;38.84
47809;BME280;33573;38.790;-77.084;2022-07-10T09:30:47;101404.32;;;26.66;38.86
47809;BME280;33573;38.790;-77.084;2022-07-10T09:33:18;101411.21;;;26.32;38.89
47809;BME280;33573;38.790;-77.084;2022-07-10T09:36:04;101418.51;;;26.40;38.84
47809;BME280;33573;38.790;-77.084;2022-07-10T09:38:55;101428.77;;;26.34;38.90
47809;BME280;33573;38.790;-77.084;2022-07-10T09:41:25;101430.94;;;26.34;38.89
47809;BME280;33573;38.790;-77.084;2022-07-10T09:43:55;101427.69;;;26.70;38.80
47809;BME280;33573;38.790;-77.084;2022-07-10T09:46:26;101426.54;;;26.36;38.85
47809;BME280;33573;38.790;-77.084;2022-07-10T09:49:10;101428.68;;;26.36;38.88
47809;BME280;33573;38.790;-77.084;2022-07-10T09:51:41;101434.39;;;26.15;38.85
47809;BME280;33573;38.790;-77.084;2022-07-10T09:54:09;101432.74;;;26.92;38.75
47809;BME280;33573;38.790;-77.084;2022-07-10T09:56:41;101433.29;;;26.39;38.72
47809;BME280;33573;38.790;-77.084;2022-07-10T09:59:12;101430.25;;;26.68;38.77
47809;BME280;33573;38.790;-77.084;2022-07-10T10:01:44;101421.32;;;26.37;38.76
47809;BME280;33573;38.790;-77.084;2022-07-10T10:04:12;101420.04;;;26.32;38.79
47809;BME280;33573;38.790;-77.084;2022-07-10T10:06:42;101421.19;;;26.27;38.87
47809;BME280;33573;38.790;-77.084;2022-07-10T10:09:19;101421.56;;;26.32;38.85
47809;BME280;33573;38.790;-77.084;2022-07-10T10:11:51;101426.23;;;26.32;38.82
47809;BME280;33573;38.790;-77.084;2022-07-10T10:14:22;101427.55;;;26.82;38.81
47809;BME280;33573;38.790;-77.084;2022-07-10T10:16:52;101430.77;;;26.47;38.90
47809;BME280;33573;38.790;-77.084;2022-07-10T10:19:23;101434.27;;;26.58;38.83
47809;BME280;33573;38.790;-77.084;2022-07-10T10:21:51;101437.26;;;26.51;38.85
47809;BME280;33573;38.790;-77.084;2022-07-10T10:24:21;101439.52;;;26.31;38.80
47809;BME280;33573;38.790;-77.084;2022-07-10T10:26:49;101440.37;;;26.44;38.67
47809;BME280;33573;38.790;-77.084;2022-07-10T10:29:17;101442.19;;;26.36;38.67
47809;BME280;33573;38.790;-77.084;2022-07-10T10:31:45;101440.38;;;26.25;38.79
47809;BME280;33573;38.790;-77.084;2022-07-10T10:34:13;101442.09;;;26.63;38.72
47809;BME280;33573;38.790;-77.084;2022-07-10T10:36:46;101444.68;;;26.42;38.66
47809;BME280;33573;38.790;-77.084;2022-07-10T10:39:16;101449.38;;;26.28;38.73
47809;BME280;33573;38.790;-77.084;2022-07-10T10:41:49;101449.72;;;26.76;38.69
47809;BME280;33573;38.790;-77.084;2022-07-10T10:44:21;101451.25;;;26.27;38.76
47809;BME280;33573;38.790;-77.084;2022-07-10T10:46:59;101459.58;;;26.21;38.81
47809;BME280;33573;38.790;-77.084;2022-07-10T10:49:48;101464.85;;;26.40;38.91
47809;BME280;33573;38.790;-77.084;2022-07-10T10:52:16;101466.24;;;26.15;38.88
47809;BME280;33573;38.790;-77.084;2022-07-10T10:55:03;101464.31;;;26.40;38.90
47809;BME280;33573;38.790;-77.084;2022-07-10T10:57:37;101467.66;;;26.26;38.84
47809;BME280;33573;38.790;-77.084;2022-07-10T11:00:07;101467.13;;;26.29;38.78
47809;BME280;33573;38.790;-77.084;2022-07-10T11:02:36;101466.83;;;26.50;38.82
47809;BME280;33573;38.790;-77.084;2022-07-10T11:06:12;101466.07;;;26.78;38.75
47809;BME280;33573;38.790;-77.084;2022-07-10T11:08:42;101470.00;;;26.41;38.87
47809;BME280;33573;38.790;-77.084;2022-07-10T11:11:42;101470.51;;;26.65;38.72
47809;BME280;33573;38.790;-77.084;2022-07-10T11:14:11;101470.82;;;26.17;38.85
47809;BME280;33573;38.790;-77.084;2022-07-10T11:16:46;101467.97;;;26.49;38.83
47809;BME280;33573;38.790;-77.084;2022-07-10T11:19:20;101468.67;;;26.58;38.74
47809;BME280;33573;38.790;-77.084;2022-07-10T11:21:56;101469.27;;;26.19;38.80
47809;BME280;33573;38.790;-77.084;2022-07-10T11:24:38;101473.16;;;26.20;38.85
47809;BME280;33573;38.790;-77.084;2022-07-10T11:27:26;101472.61;;;26.50;38.81
47809;BME280;33573;38.790;-77.084;2022-07-10T11:29:59;101472.88;;;26.43;38.96
47809;BME280;33573;38.790;-77.084;2022-07-10T11:32:28;101470.81;;;26.40;38.95
47809;BME280;33573;38.790;-77.084;2022-07-10T11:34:56;101475.04;;;26.83;38.79
47809;BME280;33573;38.790;-77.084;2022-07-10T11:37:24;101481.57;;;26.27;38.81
47809;BME280;33573;38.790;-77.084;2022-07-10T11:39:52;101487.74;;;26.56;38.82
47809;BME280;33573;38.790;-77.084;2022-07-10T11:42:49;101488.62;;;26.36;38.69
47809;BME280;33573;38.790;-77.084;2022-07-10T11:45:33;101480.03;;;26.45;38.88
47809;BME280;33573;38.790;-77.084;2022-07-10T11:48:01;101482.12;;;26.36;38.76
47809;BME280;33573;38.790;-77.084;2022-07-10T11:50:35;101487.33;;;26.30;38.75
47809;BME280;33573;38.790;-77.084;2022-07-10T11:53:03;101489.11;;;26.29;38.79
47809;BME280;33573;38.790;-77.084;2022-07-10T11:55:31;101491.91;;;26.38;38.74
47809;BME280;33573;38.790;-77.084;2022-07-10T11:57:59;101492.73;;;26.33;38.74
47809;BME280;33573;38.790;-77.084;2022-07-10T12:00:28;101495.45;;;26.82;38.75
47809;BME280;33573;38.790;-77.084;2022-07-10T12:03:17;101492.37;;;26.24;38.81
47809;BME280;33573;38.790;-77.084;2022-07-10T12:05:45;101493.37;;;26.57;38.80
47809;BME280;33573;38.790;-77.084;2022-07-10T12:08:13;101496.03;;;26.57;38.81
47809;BME280;33573;38.790;-77.084;2022-07-10T12:10:41;101500.08;;;26.83;38.80
47809;BME280;33573;38.790;-77.084;2022-07-10T12:13:10;101502.50;;;26.30;38.91
47809;BME280;33573;38.790;-77.084;2022-07-10T12:15:39;101502.87;;;26.33;39.00
47809;BME280;33573;38.790;-77.084;2022-07-10T12:18:14;101510.56;;;26.33;39.31
47809;BME280;33573;38.790;-77.084;2022-07-10T12:20:42;101507.50;;;26.57;39.29
47809;BME280;33573;38.790;-77.084;2022-07-10T12:23:10;101512.89;;;26.19;39.36
47809;BME280;33573;38.790;-77.084;2022-07-10T12:25:38;101514.23;;;26.72;39.27
47809;BME280;33573;38.790;-77.084;2022-07-10T12:28:06;101520.56;;;26.75;39.38
47809;BME280;33573;38.790;-77.084;2022-07-10T12:30:43;101520.07;;;26.60;39.33
47809;BME280;33573;38.790;-77.084;2022-07-10T12:33:12;101521.04;;;26.74;39.20
47809;BME280;33573;38.790;-77.084;2022-07-10T12:35:49;101524.58;;;26.85;39.11
47809;BME280;33573;38.790;-77.084;2022-07-10T12:38:18;101518.67;;;26.83;39.16
47809;BME280;33573;38.790;-77.084;2022-07-10T12:40:47;101519.22;;;26.44;39.13